Airfield :
LOGIN :

Register | Disclaimer

   EN    FR    IT 

 










Legend :    VFR   Marginal VFR   IFR   Intensive IFR   Very Intensive IFR
Visi :
Ceiling :
>= 8 km
>= 3000ft
5 to 8 km
1000 to 3000 ft
1500m to 5 km
500 to 1000 ft
800 to 1500m
200 to 500 ft
< 800m
< 200 ft
Symbols :   Thunderstorms  Fog  Heavy snow  Heavy precipitations  Wind > 20 kt
SIGMETs :     Misc.  Thunderstorms  Icing  Turbulence  Mountain Waves  Volcanic Ashes






- Airport Elevation : 503 ft
- IATA code : BLE


ESSD - Borlange

CURRENT METAR :
  • 270650Z 11004KT 9999 OVC005 08/08 Q1024

EXPIRED METARs :
  • 270620Z 11004KT 1800 BR SCT001 BKN004 07/07 Q1024
  • 270550Z 12003KT 5000 VV003 07/07 Q1024
  • 270520Z AUTO VRB01KT 9000 BCFG VV003 06/06 Q1024
  • 270450Z AUTO VRB01KT 0050 R32/0075N BCFG BKN005/// OVC007/// 05/05 Q1024
  • 270420Z AUTO 11002KT 0100 R32/0350U BCFG BKN007/// 03/03 Q1023

TAF COR TAF ESSD
Valid from the 27 at 07:00 until the 27 at 15:00 UTC


270703Z 2707/2715 VRB02KT 0300 BCFG BKN004
BECMG 2707/2708 9999 NSW BKN007
BECMG 2708/2710 SCT010



MET'MAP, your aeronautical weather chart ! - Copyright ORBIFLY December 2007 - Disclaimer

ORBIFLY MET'MAP TEAM :

Programming & Development : Alexandra Zaïnal
Concept & original design : Baudouin d'Aumeries
Assistance for programming : Marc-Olivier Méhu
Technical & hardware support : Manuel Goepfert

Contact : metmap@orbifly.com




SOURCES & CREDITS :

   NOAA